sensor_id;sensor_type;location;lat;lon;timestamp;pressure;altitude;pressure_sealevel;temperature;humidity
40918;BME280;26644;50.248;19.032;2023-01-26T00:02:16;98812.72;;;0.06;74.17
40918;BME280;26644;50.248;19.032;2023-01-26T00:05:21;98788.97;;;-0.12;74.16
40918;BME280;26644;50.248;19.032;2023-01-26T00:08:29;98808.69;;;-0.12;74.31
40918;BME280;26644;50.248;19.032;2023-01-26T00:11:34;98784.59;;;-0.20;73.95
40918;BME280;26644;50.248;19.032;2023-01-26T00:14:40;98777.72;;;-0.23;74.13
40918;BME280;26644;50.248;19.032;2023-01-26T00:17:54;98806.22;;;-0.07;74.25
40918;BME280;26644;50.248;19.032;2023-01-26T00:21:01;98794.19;;;-0.11;73.92
40918;BME280;26644;50.248;19.032;2023-01-26T00:24:09;98802.25;;;-0.17;74.13
40918;BME280;26644;50.248;19.032;2023-01-26T00:27:15;98789.31;;;-0.29;74.04
40918;BME280;26644;50.248;19.032;2023-01-26T00:30:20;98789.28;;;-0.35;74.24
40918;BME280;26644;50.248;19.032;2023-01-26T00:33:26;98787.88;;;-0.31;74.05
40918;BME280;26644;50.248;19.032;2023-01-26T00:36:32;98784.97;;;-0.30;74.36
40918;BME280;26644;50.248;19.032;2023-01-26T00:39:41;98758.97;;;-0.37;73.86
40918;BME280;26644;50.248;19.032;2023-01-26T00:42:46;98781.66;;;-0.25;74.07
40918;BME280;26644;50.248;19.032;2023-01-26T00:45:53;98783.31;;;-0.24;73.86
40918;BME280;26644;50.248;19.032;2023-01-26T00:48:58;98778.75;;;-0.24;73.60
40918;BME280;26644;50.248;19.032;2023-01-26T00:52:05;98782.94;;;-0.14;73.65
40918;BME280;26644;50.248;19.032;2023-01-26T00:55:13;98778.41;;;-0.07;73.70
40918;BME280;26644;50.248;19.032;2023-01-26T00:58:19;98771.59;;;0.04;73.39
40918;BME280;26644;50.248;19.032;2023-01-26T01:01:24;98769.72;;;0.04;72.85
40918;BME280;26644;50.248;19.032;2023-01-26T01:04:30;98778.25;;;0.08;73.06
40918;BME280;26644;50.248;19.032;2023-01-26T01:07:36;98768.25;;;0.02;72.99
40918;BME280;26644;50.248;19.032;2023-01-26T01:10:44;98779.28;;;0.07;73.06
40918;BME280;26644;50.248;19.032;2023-01-26T01:13:49;98773.06;;;0.13;72.99
40918;BME280;26644;50.248;19.032;2023-01-26T01:16:55;98754.34;;;-0.02;73.02
40918;BME280;26644;50.248;19.032;2023-01-26T01:20:00;98773.09;;;0.20;73.13
40918;BME280;26644;50.248;19.032;2023-01-26T01:23:07;98743.16;;;0.15;72.76
40918;BME280;26644;50.248;19.032;2023-01-26T01:26:15;98752.13;;;0.22;72.41
40918;BME280;26644;50.248;19.032;2023-01-26T01:29:21;98756.47;;;0.23;72.65
40918;BME280;26644;50.248;19.032;2023-01-26T01:32:26;98755.44;;;0.24;72.71
40918;BME280;26644;50.248;19.032;2023-01-26T01:35:31;98730.91;;;0.19;72.82
40918;BME280;26644;50.248;19.032;2023-01-26T01:38:37;98736.34;;;0.32;72.73
40918;BME280;26644;50.248;19.032;2023-01-26T01:41:46;98739.47;;;0.29;72.54
40918;BME280;26644;50.248;19.032;2023-01-26T01:45:26;98736.75;;;0.29;72.63
40918;BME280;26644;50.248;19.032;2023-01-26T01:48:53;98719.50;;;0.17;72.43
40918;BME280;26644;50.248;19.032;2023-01-26T01:52:06;98734.50;;;0.33;72.21
40918;BME280;26644;50.248;19.032;2023-01-26T01:55:16;98726.16;;;0.27;72.32
40918;BME280;26644;50.248;19.032;2023-01-26T01:58:25;98733.25;;;0.42;72.32
40918;BME280;26644;50.248;19.032;2023-01-26T02:01:32;98719.53;;;0.37;72.18
40918;BME280;26644;50.248;19.032;2023-01-26T02:04:37;98697.50;;;0.26;71.74
40918;BME280;26644;50.248;19.032;2023-01-26T02:07:44;98715.16;;;0.36;71.79
40918;BME280;26644;50.248;19.032;2023-01-26T02:10:54;98731.81;;;0.53;71.96
40918;BME280;26644;50.248;19.032;2023-01-26T02:14:08;98735.75;;;0.57;71.66
40918;BME280;26644;50.248;19.032;2023-01-26T02:17:17;98718.50;;;0.45;71.68
40918;BME280;26644;50.248;19.032;2023-01-26T02:20:31;98721.59;;;0.48;71.80
40918;BME280;26644;50.248;19.032;2023-01-26T02:23:53;98711.63;;;0.29;71.95
40918;BME280;26644;50.248;19.032;2023-01-26T02:27:08;98732.81;;;0.38;72.20
40918;BME280;26644;50.248;19.032;2023-01-26T02:30:15;98690.19;;;0.14;72.16
40918;BME280;26644;50.248;19.032;2023-01-26T02:33:24;98722.63;;;0.34;72.46
40918;BME280;26644;50.248;19.032;2023-01-26T02:36:34;98701.66;;;0.29;72.34
40918;BME280;26644;50.248;19.032;2023-01-26T02:39:50;98709.97;;;0.41;72.14
40918;BME280;26644;50.248;19.032;2023-01-26T02:43:03;98708.94;;;0.42;71.79
40918;BME280;26644;50.248;19.032;2023-01-26T02:46:09;98679.41;;;0.34;71.83
40918;BME280;26644;50.248;19.032;2023-01-26T02:49:15;98671.72;;;0.37;71.83
40918;BME280;26644;50.248;19.032;2023-01-26T02:52:33;98690.84;;;0.56;71.58
40918;BME280;26644;50.248;19.032;2023-01-26T02:55:43;98685.88;;;0.53;71.91
40918;BME280;26644;50.248;19.032;2023-01-26T02:58:52;98675.06;;;0.53;71.78
40918;BME280;26644;50.248;19.032;2023-01-26T03:01:57;98650.13;;;0.44;72.20
40918;BME280;26644;50.248;19.032;2023-01-26T03:05:04;98650.13;;;0.51;71.80
40918;BME280;26644;50.248;19.032;2023-01-26T03:08:09;98659.66;;;0.60;71.56
40918;BME280;26644;50.248;19.032;2023-01-26T03:11:15;98667.75;;;0.73;71.38
40918;BME280;26644;50.248;19.032;2023-01-26T03:14:22;98657.16;;;0.79;71.49
40918;BME280;26644;50.248;19.032;2023-01-26T03:17:28;98622.47;;;0.62;71.53
40918;BME280;26644;50.248;19.032;2023-01-26T03:20:33;98652.97;;;0.83;71.16
40918;BME280;26644;50.248;19.032;2023-01-26T03:23:51;98637.00;;;0.61;71.06
40918;BME280;26644;50.248;19.032;2023-01-26T03:27:08;98657.78;;;0.74;71.33
40918;BME280;26644;50.248;19.032;2023-01-26T03:30:29;98658.59;;;0.81;71.12
40918;BME280;26644;50.248;19.032;2023-01-26T03:33:35;98657.56;;;0.82;70.95
40918;BME280;26644;50.248;19.032;2023-01-26T03:36:41;98657.13;;;0.85;70.81
40918;BME280;26644;50.248;19.032;2023-01-26T03:39:49;98657.78;;;0.87;70.88
40918;BME280;26644;50.248;19.032;2023-01-26T03:43:09;98661.28;;;0.88;71.13
40918;BME280;26644;50.248;19.032;2023-01-26T03:46:29;98626.59;;;0.78;71.12
40918;BME280;26644;50.248;19.032;2023-01-26T03:49:48;98660.25;;;0.96;71.05
40918;BME280;26644;50.248;19.032;2023-01-26T03:53:12;98634.91;;;0.83;70.96
40918;BME280;26644;50.248;19.032;2023-01-26T03:56:31;98609.97;;;0.74;70.57
40918;BME280;26644;50.248;19.032;2023-01-26T03:59:48;98632.44;;;0.75;71.15
40918;BME280;26644;50.248;19.032;2023-01-26T04:02:59;98633.69;;;0.66;71.71
40918;BME280;26644;50.248;19.032;2023-01-26T04:06:17;98616.84;;;0.64;71.79
40918;BME280;26644;50.248;19.032;2023-01-26T04:09:36;98618.72;;;0.70;71.51
40918;BME280;26644;50.248;19.032;2023-01-26T04:12:43;98629.53;;;0.76;71.46
40918;BME280;26644;50.248;19.032;2023-01-26T04:16:01;98622.44;;;0.82;71.63
40918;BME280;26644;50.248;19.032;2023-01-26T04:19:21;98621.38;;;0.90;71.13
40918;BME280;26644;50.248;19.032;2023-01-26T04:22:40;98610.34;;;0.91;70.55
40918;BME280;26644;50.248;19.032;2023-01-26T04:25:49;98585.63;;;0.81;70.54
40918;BME280;26644;50.248;19.032;2023-01-26T04:28:55;98603.91;;;0.92;70.79
40918;BME280;26644;50.248;19.032;2023-01-26T04:31:59;98600.31;;;0.99;70.67
40918;BME280;26644;50.248;19.032;2023-01-26T04:35:10;98604.47;;;1.01;70.77
40918;BME280;26644;50.248;19.032;2023-01-26T04:38:17;98603.66;;;1.01;70.53
40918;BME280;26644;50.248;19.032;2023-01-26T04:41:24;98607.00;;;1.03;70.68
40918;BME280;26644;50.248;19.032;2023-01-26T04:44:34;98598.03;;;1.02;70.72
40918;BME280;26644;50.248;19.032;2023-01-26T04:47:41;98605.13;;;1.03;70.41
40918;BME280;26644;50.248;19.032;2023-01-26T04:50:55;98587.06;;;0.90;70.79
40918;BME280;26644;50.248;19.032;2023-01-26T04:54:02;98594.06;;;1.05;70.38
40918;BME280;26644;50.248;19.032;2023-01-26T04:57:11;98566.69;;;0.81;70.54
40918;BME280;26644;50.248;19.032;2023-01-26T05:00:21;98592.44;;;0.97;70.79
40918;BME280;26644;50.248;19.032;2023-01-26T05:03:28;98596.81;;;0.91;70.85
40918;BME280;26644;50.248;19.032;2023-01-26T05:06:37;98589.56;;;0.85;70.75
40918;BME280;26644;50.248;19.032;2023-01-26T05:09:43;98535.19;;;0.48;70.80
40918;BME280;26644;50.248;19.032;2023-01-26T05:13:09;98577.75;;;0.73;71.17
40918;BME280;26644;50.248;19.032;2023-01-26T05:16:32;98558.03;;;0.52;71.16
40918;BME280;26644;50.248;19.032;2023-01-26T05:20:05;98561.56;;;0.59;71.36
40918;BME280;26644;50.248;19.032;2023-01-26T05:23:20;98562.38;;;0.60;71.42
40918;BME280;26644;50.248;19.032;2023-01-26T05:26:53;98549.13;;;0.52;71.56
40918;BME280;26644;50.248;19.032;2023-01-26T05:30:19;98566.34;;;0.57;71.56
40918;BME280;26644;50.248;19.032;2023-01-26T05:33:27;98578.81;;;0.58;71.64
40918;BME280;26644;50.248;19.032;2023-01-26T05:36:34;98570.28;;;0.55;71.61
40918;BME280;26644;50.248;19.032;2023-01-26T05:39:45;98574.88;;;0.54;71.93
40918;BME280;26644;50.248;19.032;2023-01-26T05:42:51;98580.06;;;0.56;72.18
40918;BME280;26644;50.248;19.032;2023-01-26T05:46:42;98577.16;;;0.51;71.91
40918;BME280;26644;50.248;19.032;2023-01-26T05:49:48;98572.19;;;0.48;72.11
40918;BME280;26644;50.248;19.032;2023-01-26T05:52:59;98582.16;;;0.54;71.96
40918;BME280;26644;50.248;19.032;2023-01-26T05:56:06;98539.81;;;0.27;71.52
40918;BME280;26644;50.248;19.032;2023-01-26T05:59:17;98578.22;;;0.50;71.68
40918;BME280;26644;50.248;19.032;2023-01-26T06:02:26;98579.66;;;0.52;71.92
40918;BME280;26644;50.248;19.032;2023-01-26T06:05:31;98576.53;;;0.55;72.06
40918;BME280;26644;50.248;19.032;2023-01-26T06:08:43;98552.03;;;0.43;71.73
40918;BME280;26644;50.248;19.032;2023-01-26T06:12:14;98568.44;;;0.55;71.83
40918;BME280;26644;50.248;19.032;2023-01-26T06:15:41;98571.97;;;0.56;71.86
40918;BME280;26644;50.248;19.032;2023-01-26T06:18:49;98569.06;;;0.51;71.83
40918;BME280;26644;50.248;19.032;2023-01-26T06:21:56;98539.81;;;0.34;71.59
40918;BME280;26644;50.248;19.032;2023-01-26T06:25:03;98564.50;;;0.51;72.00
40918;BME280;26644;50.248;19.032;2023-01-26T06:28:10;98551.63;;;0.40;72.00
40918;BME280;26644;50.248;19.032;2023-01-26T06:31:15;98577.59;;;0.54;71.72
40918;BME280;26644;50.248;19.032;2023-01-26T06:34:25;98567.81;;;0.47;71.87
40918;BME280;26644;50.248;19.032;2023-01-26T06:37:30;98548.13;;;0.33;71.77
40918;BME280;26644;50.248;19.032;2023-01-26T06:40:37;98562.84;;;0.43;71.76
40918;BME280;26644;50.248;19.032;2023-01-26T06:43:44;98560.97;;;0.44;71.91
40918;BME280;26644;50.248;19.032;2023-01-26T06:46:51;98565.31;;;0.52;71.84
40918;BME280;26644;50.248;19.032;2023-01-26T06:49:59;98564.72;;;0.50;71.78
40918;BME280;26644;50.248;19.032;2023-01-26T06:53:25;98563.88;;;0.49;72.03
40918;BME280;26644;50.248;19.032;2023-01-26T06:57:00;98557.66;;;0.49;72.00
40918;BME280;26644;50.248;19.032;2023-01-26T07:00:21;98542.94;;;0.31;72.28
40918;BME280;26644;50.248;19.032;2023-01-26T07:03:46;98552.25;;;0.42;72.53
40918;BME280;26644;50.248;19.032;2023-01-26T07:06:55;98534.63;;;0.33;72.57
40918;BME280;26644;50.248;19.032;2023-01-26T07:10:00;98515.50;;;0.27;72.57
40918;BME280;26644;50.248;19.032;2023-01-26T07:13:07;98546.19;;;0.53;72.69
40918;BME280;26644;50.248;19.032;2023-01-26T07:16:14;98542.66;;;0.59;72.67
40918;BME280;26644;50.248;19.032;2023-01-26T07:19:21;98545.56;;;0.58;72.53
40918;BME280;26644;50.248;19.032;2023-01-26T07:22:29;98543.94;;;0.50;72.57
40918;BME280;26644;50.248;19.032;2023-01-26T07:25:34;98507.81;;;0.24;72.65
40918;BME280;26644;50.248;19.032;2023-01-26T07:28:39;98535.88;;;0.30;72.94
40918;BME280;26644;50.248;19.032;2023-01-26T07:31:45;98539.38;;;0.31;73.00
40918;BME280;26644;50.248;19.032;2023-01-26T07:34:50;98540.22;;;0.24;73.16
40918;BME280;26644;50.248;19.032;2023-01-26T07:37:58;98547.28;;;0.25;73.19
40918;BME280;26644;50.248;19.032;2023-01-26T07:41:06;98518.63;;;0.04;73.51
40918;BME280;26644;50.248;19.032;2023-01-26T07:44:13;98548.75;;;0.15;73.80
40918;BME280;26644;50.248;19.032;2023-01-26T07:47:18;98552.47;;;0.20;73.75
40918;BME280;26644;50.248;19.032;2023-01-26T07:50:24;98542.94;;;0.18;73.89
40918;BME280;26644;50.248;19.032;2023-01-26T07:53:31;98513.88;;;-0.00;73.97
40918;BME280;26644;50.248;19.032;2023-01-26T07:56:40;98538.38;;;0.12;74.10
40918;BME280;26644;50.248;19.032;2023-01-26T07:59:45;98545.84;;;0.16;74.03
40918;BME280;26644;50.248;19.032;2023-01-26T08:02:51;98547.06;;;0.20;74.05
40918;BME280;26644;50.248;19.032;2023-01-26T08:05:56;98505.97;;;0.12;74.00
40918;BME280;26644;50.248;19.032;2023-01-26T08:09:04;98509.25;;;0.34;73.80
40918;BME280;26644;50.248;19.032;2023-01-26T08:12:09;98545.34;;;0.59;72.92
40918;BME280;26644;50.248;19.032;2023-01-26T08:15:15;98544.72;;;0.64;72.82
40918;BME280;26644;50.248;19.032;2023-01-26T08:18:20;98518.78;;;0.56;72.15
40918;BME280;26644;50.248;19.032;2023-01-26T08:21:26;98539.47;;;0.76;72.00
40918;BME280;26644;50.248;19.032;2023-01-26T08:24:33;98531.97;;;0.85;71.77
40918;BME280;26644;50.248;19.032;2023-01-26T08:27:39;98532.38;;;0.88;71.61
40918;BME280;26644;50.248;19.032;2023-01-26T08:30:44;98537.97;;;0.93;71.39
40918;BME280;26644;50.248;19.032;2023-01-26T08:33:51;98540.84;;;0.99;71.41
40918;BME280;26644;50.248;19.032;2023-01-26T08:36:56;98535.41;;;1.12;71.36
40918;BME280;26644;50.248;19.032;2023-01-26T08:40:06;98533.47;;;1.19;70.66
40918;BME280;26644;50.248;19.032;2023-01-26T08:43:12;98531.19;;;1.23;70.41
40918;BME280;26644;50.248;19.032;2023-01-26T08:46:17;98539.53;;;1.21;70.21
40918;BME280;26644;50.248;19.032;2023-01-26T08:49:22;98542.59;;;1.25;70.68
40918;BME280;26644;50.248;19.032;2023-01-26T08:52:28;98520.19;;;1.18;70.14
40918;BME280;26644;50.248;19.032;2023-01-26T08:55:36;98540.94;;;1.31;70.27
40918;BME280;26644;50.248;19.032;2023-01-26T08:58:42;98544.19;;;1.39;70.29
40918;BME280;26644;50.248;19.032;2023-01-26T09:01:47;98542.88;;;1.49;69.92
40918;BME280;26644;50.248;19.032;2023-01-26T09:04:53;98543.06;;;1.54;69.76
40918;BME280;26644;50.248;19.032;2023-01-26T09:07:58;98539.72;;;1.58;69.32
40918;BME280;26644;50.248;19.032;2023-01-26T09:11:07;98544.28;;;1.58;69.32
40918;BME280;26644;50.248;19.032;2023-01-26T09:14:13;98539.72;;;1.58;69.36
40918;BME280;26644;50.248;19.032;2023-01-26T09:17:19;98521.91;;;1.44;69.22
40918;BME280;26644;50.248;19.032;2023-01-26T09:20:23;98545.47;;;1.69;68.96
40918;BME280;26644;50.248;19.032;2023-01-26T09:23:30;98525.91;;;1.67;68.77
40918;BME280;26644;50.248;19.032;2023-01-26T09:26:38;98530.38;;;1.80;68.54
40918;BME280;26644;50.248;19.032;2023-01-26T09:29:44;98528.53;;;1.80;68.61
40918;BME280;26644;50.248;19.032;2023-01-26T09:32:49;98515.09;;;1.67;68.14
40918;BME280;26644;50.248;19.032;2023-01-26T09:35:55;98501.84;;;1.58;68.61
40918;BME280;26644;50.248;19.032;2023-01-26T09:39:00;98500.25;;;1.44;69.01
40918;BME280;26644;50.248;19.032;2023-01-26T09:42:28;98517.97;;;1.40;69.26
40918;BME280;26644;50.248;19.032;2023-01-26T09:45:51;98520.66;;;1.47;69.51
40918;BME280;26644;50.248;19.032;2023-01-26T09:49:13;98492.72;;;1.14;69.57
40918;BME280;26644;50.248;19.032;2023-01-26T09:52:26;98514.16;;;1.16;69.47
40918;BME280;26644;50.248;19.032;2023-01-26T09:55:35;98514.38;;;1.14;69.80
40918;BME280;26644;50.248;19.032;2023-01-26T09:58:46;98502.28;;;1.17;69.81
40918;BME280;26644;50.248;19.032;2023-01-26T10:02:01;98487.09;;;1.16;69.56
40918;BME280;26644;50.248;19.032;2023-01-26T10:05:31;98510.09;;;1.32;69.42
40918;BME280;26644;50.248;19.032;2023-01-26T10:08:43;98516.53;;;1.37;69.66
40918;BME280;26644;50.248;19.032;2023-01-26T10:11:53;98486.19;;;1.29;69.65
40918;BME280;26644;50.248;19.032;2023-01-26T10:15:10;98464.66;;;1.15;69.30
40918;BME280;26644;50.248;19.032;2023-01-26T10:18:29;98469.09;;;1.03;69.74
40918;BME280;26644;50.248;19.032;2023-01-26T10:21:43;98475.28;;;1.10;69.65
40918;BME280;26644;50.248;19.032;2023-01-26T10:24:50;98493.94;;;1.18;70.14
40918;BME280;26644;50.248;19.032;2023-01-26T10:27:57;98484.03;;;1.12;70.27
40918;BME280;26644;50.248;19.032;2023-01-26T10:31:11;98487.25;;;1.27;70.23
40918;BME280;26644;50.248;19.032;2023-01-26T10:34:24;98483.03;;;1.32;70.27
40918;BME280;26644;50.248;19.032;2023-01-26T10:37:32;98478.03;;;1.35;70.00
40918;BME280;26644;50.248;19.032;2023-01-26T10:40:43;98480.09;;;1.40;69.91
40918;BME280;26644;50.248;19.032;2023-01-26T10:43:52;98486.84;;;1.56;69.97
40918;BME280;26644;50.248;19.032;2023-01-26T10:47:14;98477.25;;;1.60;69.79
40918;BME280;26644;50.248;19.032;2023-01-26T10:50:21;98476.16;;;1.68;69.22
40918;BME280;26644;50.248;19.032;2023-01-26T10:53:28;98478.91;;;1.86;69.23
40918;BME280;26644;50.248;19.032;2023-01-26T10:56:34;98465.97;;;1.88;68.88
40918;BME280;26644;50.248;19.032;2023-01-26T10:59:47;98458.06;;;1.87;68.63
40918;BME280;26644;50.248;19.032;2023-01-26T11:03:04;98465.69;;;1.97;68.42
40918;BME280;26644;50.248;19.032;2023-01-26T11:06:27;98463.66;;;1.92;68.79
40918;BME280;26644;50.248;19.032;2023-01-26T11:09:32;98465.09;;;1.94;68.68
40918;BME280;26644;50.248;19.032;2023-01-26T11:12:38;98452.69;;;2.05;68.89
40918;BME280;26644;50.248;19.032;2023-01-26T11:15:45;98454.13;;;2.08;68.58
40918;BME280;26644;50.248;19.032;2023-01-26T11:18:59;98449.97;;;2.05;68.52
40918;BME280;26644;50.248;19.032;2023-01-26T11:22:16;98461.94;;;1.98;67.82
40918;BME280;26644;50.248;19.032;2023-01-26T11:25:32;98442.56;;;1.94;67.99
40918;BME280;26644;50.248;19.032;2023-01-26T11:28:53;98448.31;;;2.04;67.48
40918;BME280;26644;50.248;19.032;2023-01-26T11:32:21;98443.19;;;1.96;67.33
40918;BME280;26644;50.248;19.032;2023-01-26T11:35:47;98444.53;;;1.87;67.42
40918;BME280;26644;50.248;19.032;2023-01-26T11:39:08;98411.38;;;1.66;67.98
40918;BME280;26644;50.248;19.032;2023-01-26T11:42:26;98432.72;;;1.81;67.86
40918;BME280;26644;50.248;19.032;2023-01-26T11:46:00;98425.50;;;1.93;67.82
40918;BME280;26644;50.248;19.032;2023-01-26T11:49:35;98421.69;;;2.01;67.48
40918;BME280;26644;50.248;19.032;2023-01-26T11:53:08;98397.72;;;2.05;67.10
40918;BME280;26644;50.248;19.032;2023-01-26T11:56:39;98412.97;;;2.18;67.12
40918;BME280;26644;50.248;19.032;2023-01-26T11:59:58;98416.13;;;2.33;67.01
40918;BME280;26644;50.248;19.032;2023-01-26T12:03:22;98396.94;;;2.35;66.53
40918;BME280;26644;50.248;19.032;2023-01-26T12:06:37;98387.53;;;2.37;66.34
40918;BME280;26644;50.248;19.032;2023-01-26T12:09:49;98401.97;;;2.50;66.44
40918;BME280;26644;50.248;19.032;2023-01-26T12:13:04;98391.66;;;2.58;66.45
40918;BME280;26644;50.248;19.032;2023-01-26T12:16:26;98389.75;;;2.59;65.67
40918;BME280;26644;50.248;19.032;2023-01-26T12:19:47;98392.22;;;2.60;65.77
40918;BME280;26644;50.248;19.032;2023-01-26T12:23:11;98386.00;;;2.60;65.65
40918;BME280;26644;50.248;19.032;2023-01-26T12:26:31;98388.22;;;2.51;65.42
40918;BME280;26644;50.248;19.032;2023-01-26T12:29:49;98379.63;;;2.54;65.55
40918;BME280;26644;50.248;19.032;2023-01-26T12:32:58;98376.28;;;2.52;65.32
40918;BME280;26644;50.248;19.032;2023-01-26T12:36:24;98364.81;;;2.38;65.53
40918;BME280;26644;50.248;19.032;2023-01-26T12:39:44;98359.81;;;2.35;65.97
40918;BME280;26644;50.248;19.032;2023-01-26T12:43:12;98376.16;;;2.28;66.11
40918;BME280;26644;50.248;19.032;2023-01-26T12:46:34;98375.25;;;2.35;66.36
40918;BME280;26644;50.248;19.032;2023-01-26T12:49:53;98364.09;;;2.43;65.85
40918;BME280;26644;50.248;19.032;2023-01-26T12:53:10;98364.72;;;2.45;65.55
40918;BME280;26644;50.248;19.032;2023-01-26T12:56:23;98361.16;;;2.44;65.74
40918;BME280;26644;50.248;19.032;2023-01-26T12:59:38;98368.72;;;2.42;65.81
40918;BME280;26644;50.248;19.032;2023-01-26T13:02:47;98353.78;;;2.52;65.59
40918;BME280;26644;50.248;19.032;2023-01-26T13:05:59;98352.97;;;2.51;65.73
40918;BME280;26644;50.248;19.032;2023-01-26T13:09:20;98358.16;;;2.53;66.29
40918;BME280;26644;50.248;19.032;2023-01-26T13:12:44;98341.00;;;2.40;65.74
40918;BME280;26644;50.248;19.032;2023-01-26T13:19:51;98357.16;;;2.47;65.59
40918;BME280;26644;50.248;19.032;2023-01-26T13:23:00;98366.56;;;2.33;65.45
40918;BME280;26644;50.248;19.032;2023-01-26T13:26:17;98341.09;;;2.15;66.22
40918;BME280;26644;50.248;19.032;2023-01-26T13:29:31;98363.00;;;2.32;66.00
40918;BME280;26644;50.248;19.032;2023-01-26T13:33:00;98357.50;;;2.39;65.79
40918;BME280;26644;50.248;19.032;2023-01-26T13:36:16;98354.19;;;2.37;65.95
40918;BME280;26644;50.248;19.032;2023-01-26T13:39:30;98354.06;;;2.32;65.78
40918;BME280;26644;50.248;19.032;2023-01-26T13:42:50;98328.50;;;2.09;65.80
40918;BME280;26644;50.248;19.032;2023-01-26T13:46:11;98352.47;;;2.24;65.81
40918;BME280;26644;50.248;19.032;2023-01-26T13:49:36;98345.16;;;2.24;65.95
40918;BME280;26644;50.248;19.032;2023-01-26T13:52:43;98347.63;;;2.26;66.33
40918;BME280;26644;50.248;19.032;2023-01-26T13:55:53;98336.31;;;2.17;66.25
40918;BME280;26644;50.248;19.032;2023-01-26T13:59:05;98349.75;;;2.24;66.14
40918;BME280;26644;50.248;19.032;2023-01-26T14:02:21;98340.22;;;2.21;66.23
40918;BME280;26644;50.248;19.032;2023-01-26T14:05:31;98336.53;;;2.16;66.59
40918;BME280;26644;50.248;19.032;2023-01-26T14:08:38;98342.38;;;2.31;66.47
40918;BME280;26644;50.248;19.032;2023-01-26T14:11:55;98345.69;;;2.33;66.34
40918;BME280;26644;50.248;19.032;2023-01-26T14:15:05;98338.84;;;2.31;66.32
40918;BME280;26644;50.248;19.032;2023-01-26T14:18:23;98330.41;;;2.20;66.38
40918;BME280;26644;50.248;19.032;2023-01-26T14:21:31;98345.06;;;2.31;66.55
40918;BME280;26644;50.248;19.032;2023-01-26T14:24:38;98328.75;;;2.19;66.53
40918;BME280;26644;50.248;19.032;2023-01-26T14:27:43;98346.28;;;2.35;66.55
40918;BME280;26644;50.248;19.032;2023-01-26T14:30:59;98325.63;;;2.22;66.27
40918;BME280;26644;50.248;19.032;2023-01-26T14:34:09;98340.94;;;2.28;66.53
40918;BME280;26644;50.248;19.032;2023-01-26T14:37:18;98338.63;;;2.14;66.93
40918;BME280;26644;50.248;19.032;2023-01-26T14:40:25;98344.50;;;2.10;67.28
40918;BME280;26644;50.248;19.032;2023-01-26T14:43:30;98349.78;;;2.05;67.40
40918;BME280;26644;50.248;19.032;2023-01-26T14:46:46;98338.88;;;1.93;67.42
40918;BME280;26644;50.248;19.032;2023-01-26T14:50:01;98329.53;;;1.89;67.74
40918;BME280;26644;50.248;19.032;2023-01-26T14:53:17;98324.59;;;1.86;68.06
40918;BME280;26644;50.248;19.032;2023-01-26T14:56:32;98331.63;;;1.87;67.84
40918;BME280;26644;50.248;19.032;2023-01-26T14:59:40;98324.88;;;1.78;67.92
40918;BME280;26644;50.248;19.032;2023-01-26T15:02:47;98330.13;;;1.73;68.37
40918;BME280;26644;50.248;19.032;2023-01-26T15:06:17;98325.41;;;1.68;68.32
40918;BME280;26644;50.248;19.032;2023-01-26T15:09:28;98303.88;;;1.55;68.67
40918;BME280;26644;50.248;19.032;2023-01-26T15:12:34;98305.16;;;1.52;68.83
40918;BME280;26644;50.248;19.032;2023-01-26T15:15:42;98283.03;;;1.37;68.74
40918;BME280;26644;50.248;19.032;2023-01-26T15:18:57;98319.44;;;1.59;68.96
40918;BME280;26644;50.248;19.032;2023-01-26T15:22:17;98290.56;;;1.35;69.20
40918;BME280;26644;50.248;19.032;2023-01-26T15:25:30;98322.50;;;1.44;69.69
40918;BME280;26644;50.248;19.032;2023-01-26T15:28:39;98322.97;;;1.41;69.67
40918;BME280;26644;50.248;19.032;2023-01-26T15:31:51;98330.06;;;1.36;69.85
40918;BME280;26644;50.248;19.032;2023-01-26T15:38:27;98306.00;;;1.27;69.39
40918;BME280;26644;50.248;19.032;2023-01-26T15:41:35;98326.47;;;1.42;69.59
40918;BME280;26644;50.248;19.032;2023-01-26T15:44:41;98327.75;;;1.39;69.75
40918;BME280;26644;50.248;19.032;2023-01-26T15:47:46;98327.53;;;1.41;69.99
40918;BME280;26644;50.248;19.032;2023-01-26T15:50:52;98326.31;;;1.37;70.03
40918;BME280;26644;50.248;19.032;2023-01-26T15:53:58;98318.66;;;1.34;70.24
40918;BME280;26644;50.248;19.032;2023-01-26T15:57:05;98322.78;;;1.36;70.33
40918;BME280;26644;50.248;19.032;2023-01-26T16:00:12;98308.94;;;1.26;70.26
40918;BME280;26644;50.248;19.032;2023-01-26T16:03:19;98308.19;;;1.19;70.31
40918;BME280;26644;50.248;19.032;2023-01-26T16:06:27;98317.44;;;1.30;70.43
40918;BME280;26644;50.248;19.032;2023-01-26T16:09:33;98315.84;;;1.22;70.84
40918;BME280;26644;50.248;19.032;2023-01-26T16:12:42;98320.63;;;1.20;70.88
40918;BME280;26644;50.248;19.032;2023-01-26T16:15:48;98322.69;;;1.24;71.00
40918;BME280;26644;50.248;19.032;2023-01-26T16:18:55;98311.72;;;1.19;70.80
40918;BME280;26644;50.248;19.032;2023-01-26T16:22:00;98326.38;;;1.30;71.01
40918;BME280;26644;50.248;19.032;2023-01-26T16:25:18;98303.19;;;1.16;71.07
40918;BME280;26644;50.248;19.032;2023-01-26T16:28:29;98316.59;;;1.29;70.86
40918;BME280;26644;50.248;19.032;2023-01-26T16:31:35;98309.63;;;1.21;70.94
40918;BME280;26644;50.248;19.032;2023-01-26T16:34:41;98304.81;;;1.23;70.80
40918;BME280;26644;50.248;19.032;2023-01-26T16:37:47;98317.69;;;1.28;71.04
40918;BME280;26644;50.248;19.032;2023-01-26T16:40:53;98312.84;;;1.30;70.98
40918;BME280;26644;50.248;19.032;2023-01-26T16:44:02;98314.28;;;1.33;70.82
40918;BME280;26644;50.248;19.032;2023-01-26T16:47:10;98293.41;;;1.21;70.88
40918;BME280;26644;50.248;19.032;2023-01-26T16:50:16;98305.59;;;1.31;70.92
40918;BME280;26644;50.248;19.032;2023-01-26T16:53:26;98300.00;;;1.25;71.17
40918;BME280;26644;50.248;19.032;2023-01-26T16:56:34;98304.75;;;1.30;71.44
40918;BME280;26644;50.248;19.032;2023-01-26T16:59:41;98301.56;;;1.33;71.16
40918;BME280;26644;50.248;19.032;2023-01-26T17:02:50;98306.41;;;1.31;70.89